createdAt,value
2022-08-17T00:00:34.364Z,2.88
2022-08-17T00:03:10.413Z,2.58
2022-08-17T00:05:42.828Z,3.35
2022-08-17T00:08:13.078Z,3.08
2022-08-17T00:10:42.013Z,2.67
2022-08-17T00:13:16.616Z,2.60
2022-08-17T00:15:45.227Z,2.60
2022-08-17T00:19:02.140Z,2.85
2022-08-17T00:21:10.199Z,2.95
2022-08-17T00:23:47.766Z,3.00
2022-08-17T00:26:44.242Z,2.90
2022-08-17T00:29:08.041Z,3.10
2022-08-17T00:31:36.611Z,2.50
2022-08-17T00:34:05.481Z,2.95
2022-08-17T00:36:33.222Z,2.70
2022-08-17T00:39:03.438Z,3.03
2022-08-17T00:41:31.263Z,3.47
2022-08-17T00:44:02.635Z,2.67
2022-08-17T00:46:38.261Z,2.78
2022-08-17T00:49:09.086Z,2.40
2022-08-17T00:52:04.555Z,2.35
2022-08-17T00:54:43.682Z,2.42
2022-08-17T00:57:18.274Z,2.70
2022-08-17T01:00:03.330Z,2.45
2022-08-17T01:02:42.186Z,2.30
2022-08-17T01:05:23.734Z,2.50
2022-08-17T01:07:54.419Z,3.05
2022-08-17T01:10:58.730Z,2.80
2022-08-17T01:13:18.107Z,2.53
2022-08-17T01:16:16.101Z,2.70
2022-08-17T01:18:47.294Z,2.70
2022-08-17T01:21:29.283Z,2.65
2022-08-17T01:23:57.556Z,2.45
2022-08-17T01:26:26.158Z,2.70
2022-08-17T01:28:55.972Z,2.72
2022-08-17T01:31:29.412Z,2.78
2022-08-17T01:34:00.631Z,2.85
2022-08-17T01:36:29.826Z,2.90
2022-08-17T01:38:57.666Z,2.63
2022-08-17T01:41:26.138Z,2.63
2022-08-17T01:44:05.872Z,2.45
2022-08-17T01:46:36.618Z,2.38
2022-08-17T01:49:10.635Z,2.78
2022-08-17T01:51:39.343Z,3.45
2022-08-17T01:54:12.888Z,3.03
2022-08-17T01:56:47.069Z,3.10
2022-08-17T01:59:16.930Z,3.00
2022-08-17T02:01:45.623Z,3.05
2022-08-17T02:04:14.171Z,3.10
2022-08-17T02:06:52.475Z,3.05
2022-08-17T02:09:25.878Z,3.40
2022-08-17T02:11:56.651Z,3.00
2022-08-17T02:14:26.099Z,2.90
2022-08-17T02:16:57.502Z,3.63
2022-08-17T02:19:25.380Z,2.97
2022-08-17T02:21:54.476Z,3.33
2022-08-17T02:25:01.018Z,3.45
2022-08-17T02:27:15.346Z,3.58
2022-08-17T02:29:43.991Z,2.97
2022-08-17T02:32:27.428Z,3.25
2022-08-17T02:35:00.356Z,3.60
2022-08-17T02:37:29.975Z,3.30
2022-08-17T02:39:58.759Z,3.50
2022-08-17T02:42:34.012Z,3.70
2022-08-17T02:45:03.938Z,3.60
2022-08-17T02:47:31.882Z,3.42
2022-08-17T02:49:59.780Z,3.63
2022-08-17T02:52:42.565Z,3.70
2022-08-17T02:55:24.151Z,3.30
2022-08-17T02:57:52.875Z,3.55
2022-08-17T03:00:28.931Z,3.40
2022-08-17T03:02:57.448Z,3.28
2022-08-17T03:05:27.792Z,3.88
2022-08-17T03:07:56.043Z,3.75
2022-08-17T03:10:24.825Z,3.60
2022-08-17T03:12:53.709Z,3.53
2022-08-17T03:15:31.612Z,3.67
2022-08-17T03:18:01.064Z,3.05
2022-08-17T03:20:31.631Z,3.65
2022-08-17T03:23:02.945Z,3.60
2022-08-17T03:25:36.619Z,3.38
2022-08-17T03:28:07.700Z,3.78
2022-08-17T03:30:36.032Z,3.65
2022-08-17T03:33:06.980Z,3.67
2022-08-17T03:35:36.543Z,3.80
2022-08-17T03:38:05.407Z,4.00
2022-08-17T03:40:39.852Z,3.55
2022-08-17T03:43:22.763Z,3.75
2022-08-17T03:46:10.911Z,4.10
2022-08-17T03:49:13.944Z,3.75
2022-08-17T03:52:00.575Z,3.97
2022-08-17T03:54:47.079Z,3.95
2022-08-17T03:57:14.971Z,4.03
2022-08-17T03:59:43.228Z,3.80
2022-08-17T04:02:22.465Z,4.00
2022-08-17T04:04:51.177Z,3.95
2022-08-17T04:07:20.940Z,3.70
2022-08-17T04:09:49.126Z,4.10
2022-08-17T04:12:18.887Z,4.03
2022-08-17T04:14:51.976Z,3.67
2022-08-17T04:17:24.542Z,3.90
2022-08-17T04:19:53.311Z,3.97
2022-08-17T04:22:32.204Z,3.70
2022-08-17T04:25:18.658Z,3.65
2022-08-17T04:27:46.594Z,3.80
2022-08-17T04:30:15.471Z,4.32
2022-08-17T04:33:06.217Z,3.33
2022-08-17T04:35:42.178Z,4.22
2022-08-17T04:38:12.230Z,4.05
2022-08-17T04:40:58.707Z,4.38
2022-08-17T04:43:27.665Z,4.10
2022-08-17T04:46:01.501Z,3.85
2022-08-17T04:48:36.690Z,3.67
2022-08-17T04:51:15.036Z,3.83
2022-08-17T04:53:46.118Z,3.60
2022-08-17T04:56:23.556Z,3.60
2022-08-17T04:58:53.443Z,3.90
2022-08-17T05:01:24.572Z,4.40
2022-08-17T05:03:56.325Z,4.00
2022-08-17T05:06:27.749Z,3.60
2022-08-17T05:08:56.366Z,3.88
2022-08-17T05:11:26.175Z,3.80
2022-08-17T05:13:55.048Z,3.67
2022-08-17T05:16:25.733Z,4.07
2022-08-17T05:18:54.259Z,4.55
2022-08-17T05:21:23.312Z,4.85
2022-08-17T05:23:54.861Z,5.03
2022-08-17T05:26:27.217Z,4.00
2022-08-17T05:28:59.810Z,4.72
2022-08-17T05:31:36.273Z,5.00
2022-08-17T05:34:14.386Z,5.22
2022-08-17T05:36:44.469Z,4.78
2022-08-17T05:39:16.784Z,4.40
2022-08-17T05:41:48.418Z,5.20
2022-08-17T05:44:17.732Z,5.40
2022-08-17T05:46:52.351Z,4.82
2022-08-17T05:49:27.742Z,5.40
2022-08-17T05:52:10.613Z,6.00
2022-08-17T05:55:00.214Z,5.00
2022-08-17T05:57:43.509Z,4.53
2022-08-17T06:00:30.801Z,5.20
2022-08-17T06:03:04.563Z,5.32
2022-08-17T06:05:51.545Z,4.70
2022-08-17T06:08:31.769Z,4.45
2022-08-17T06:11:10.024Z,3.83
2022-08-17T06:13:45.024Z,4.57
2022-08-17T06:16:33.134Z,4.25
2022-08-17T06:19:06.697Z,4.85
2022-08-17T06:21:39.844Z,4.90
2022-08-17T06:24:37.125Z,4.38
2022-08-17T06:27:30.556Z,5.57
2022-08-17T06:30:29.255Z,5.78
2022-08-17T06:33:24.288Z,4.10
2022-08-17T06:35:54.911Z,4.72
2022-08-17T06:38:48.662Z,4.63
2022-08-17T06:41:38.898Z,4.28
2022-08-17T06:44:49.831Z,4.85
2022-08-17T06:47:31.871Z,4.47
2022-08-17T06:49:59.658Z,4.07
2022-08-17T06:52:45.355Z,4.38
2022-08-17T06:55:26.623Z,3.92
2022-08-17T06:58:09.397Z,4.15
2022-08-17T07:00:47.627Z,4.32
2022-08-17T07:03:24.538Z,4.00
2022-08-17T07:05:58.040Z,3.47
2022-08-17T07:08:55.338Z,3.17
2022-08-17T07:11:27.682Z,3.20
2022-08-17T07:14:36.749Z,3.15
2022-08-17T07:17:11.449Z,3.42
2022-08-17T07:19:41.452Z,2.88
2022-08-17T07:22:55.298Z,3.88
2022-08-17T07:25:21.683Z,2.63
2022-08-17T07:27:52.955Z,3.53
2022-08-17T07:30:28.108Z,2.90
2022-08-17T07:33:03.140Z,2.83
2022-08-17T07:35:31.228Z,3.05
2022-08-17T07:38:30.435Z,3.15
2022-08-17T07:41:02.165Z,3.10
2022-08-17T07:43:48.222Z,3.47
2022-08-17T07:49:31.829Z,3.13
2022-08-17T07:52:48.409Z,3.03
2022-08-17T07:54:52.600Z,3.72
2022-08-17T07:57:20.332Z,3.83
2022-08-17T08:00:00.016Z,3.70
2022-08-17T08:02:34.588Z,3.10
2022-08-17T08:05:29.948Z,3.45
2022-08-17T08:08:38.153Z,3.53
2022-08-17T08:11:15.601Z,3.42
2022-08-17T08:13:45.877Z,3.35
2022-08-17T08:16:27.709Z,3.38
2022-08-17T08:18:59.697Z,3.65
2022-08-17T08:21:47.314Z,3.53
2022-08-17T08:24:21.335Z,3.78
2022-08-17T08:27:00.798Z,4.03
2022-08-17T08:29:53.089Z,3.30
2022-08-17T08:32:37.225Z,2.85
2022-08-17T08:37:45.168Z,3.60
2022-08-17T08:40:38.239Z,3.50
2022-08-17T08:43:08.809Z,3.22
2022-08-17T09:07:57.315Z,2.60
2022-08-17T09:11:00.401Z,2.25
2022-08-17T09:13:46.827Z,2.22
2022-08-17T09:16:36.247Z,2.53
2022-08-17T09:19:19.999Z,1.90
2022-08-17T09:21:59.955Z,1.92
2022-08-17T09:24:38.229Z,1.55
2022-08-17T09:27:15.278Z,2.08
2022-08-17T09:29:52.049Z,1.60
2022-08-17T09:32:33.409Z,1.70
2022-08-17T09:35:10.598Z,1.90
2022-08-17T09:37:58.518Z,1.70
2022-08-17T09:40:37.736Z,1.63
2022-08-17T09:43:36.551Z,1.65
2022-08-17T09:46:16.251Z,1.90
2022-08-17T09:48:55.496Z,1.73
2022-08-17T09:51:33.487Z,1.83
2022-08-17T09:54:41.123Z,1.70
2022-08-17T09:57:30.466Z,2.03
2022-08-17T10:00:12.476Z,1.70
2022-08-17T10:02:55.851Z,1.70
2022-08-17T10:05:27.548Z,1.35
2022-08-17T10:08:12.670Z,2.10
2022-08-17T10:11:08.481Z,1.70
2022-08-17T10:13:52.656Z,1.83
2022-08-17T10:16:31.162Z,1.70
2022-08-17T10:19:16.201Z,1.48
2022-08-17T10:22:14.999Z,1.50
2022-08-17T10:25:22.615Z,1.50
2022-08-17T10:27:57.368Z,1.92
2022-08-17T10:30:28.588Z,1.75
2022-08-17T10:33:15.560Z,1.60
2022-08-17T10:35:48.134Z,2.00
2022-08-17T10:38:25.669Z,1.75
2022-08-17T10:40:53.418Z,1.67
2022-08-17T10:43:39.086Z,2.03
2022-08-17T10:47:01.660Z,2.00
2022-08-17T10:49:56.168Z,1.92
2022-08-17T10:52:24.815Z,1.90
2022-08-17T10:54:58.106Z,1.80
2022-08-17T11:00:15.869Z,2.17
2022-08-17T11:02:50.341Z,2.13
2022-08-17T11:05:43.849Z,1.90
2022-08-17T11:08:38.585Z,2.08
2022-08-17T11:11:42.195Z,1.80
2022-08-17T11:14:20.615Z,1.83
2022-08-17T11:17:14.865Z,1.92
2022-08-17T11:22:52.898Z,1.90
2022-08-17T11:25:34.086Z,2.37
2022-08-17T11:28:38.632Z,1.95
2022-08-17T11:31:37.833Z,2.20
2022-08-17T11:34:19.364Z,2.10
2022-08-17T11:37:08.221Z,2.03
2022-08-17T11:39:49.681Z,2.35
2022-08-17T11:42:40.363Z,2.28
2022-08-17T11:45:32.531Z,2.30
2022-08-17T11:48:37.369Z,2.65
2022-08-17T11:51:46.814Z,2.00
2022-08-17T11:54:34.415Z,2.17
2022-08-17T11:57:27.403Z,2.38
2022-08-17T11:59:59.378Z,2.30
2022-08-17T12:02:31.757Z,2.50
2022-08-17T12:05:13.194Z,2.60
2022-08-17T12:07:52.175Z,2.30
2022-08-17T12:10:30.796Z,2.38
2022-08-17T12:13:10.516Z,2.45
2022-08-17T12:15:48.851Z,2.55
2022-08-17T12:18:33.830Z,2.25
2022-08-17T12:21:22.748Z,2.45
2022-08-17T12:24:23.043Z,2.80
2022-08-17T12:26:54.333Z,3.13
2022-08-17T12:29:35.796Z,2.85
2022-08-17T12:32:13.207Z,2.67
2022-08-17T12:34:43.914Z,2.28
2022-08-17T12:37:25.233Z,2.30
2022-08-17T12:40:02.628Z,2.80
2022-08-17T12:42:39.415Z,2.47
2022-08-17T12:45:21.222Z,2.55
2022-08-17T12:47:49.472Z,2.80
2022-08-17T12:50:28.539Z,2.65
2022-08-17T12:53:01.911Z,3.10
2022-08-17T12:55:37.307Z,2.40
2022-08-17T12:58:08.954Z,2.88
2022-08-17T13:00:49.353Z,2.63
2022-08-17T13:03:23.790Z,2.58
2022-08-17T13:06:09.282Z,2.40
2022-08-17T13:08:41.315Z,2.70
2022-08-17T13:11:20.374Z,2.60
2022-08-17T13:13:58.470Z,2.47
2022-08-17T13:16:33.593Z,2.95
2022-08-17T13:19:08.854Z,2.47
2022-08-17T13:21:38.248Z,2.75
2022-08-17T13:24:12.286Z,2.63
2022-08-17T13:26:49.110Z,2.60
2022-08-17T13:29:24.276Z,2.90
2022-08-17T13:32:15.589Z,2.75
2022-08-17T13:35:13.829Z,2.90
2022-08-17T13:38:11.758Z,3.00
2022-08-17T13:40:50.322Z,3.45
2022-08-17T13:43:37.761Z,2.53
2022-08-17T13:46:21.317Z,2.67
2022-08-17T13:49:21.119Z,2.45
2022-08-17T13:51:50.368Z,2.88
2022-08-17T13:54:20.738Z,2.55
2022-08-17T13:57:38.028Z,3.08
2022-08-17T14:00:18.868Z,2.90
2022-08-17T14:02:46.893Z,2.30
2022-08-17T14:05:14.918Z,3.03
2022-08-17T14:07:42.834Z,2.28
2022-08-17T14:10:15.557Z,2.92
2022-08-17T14:12:45.255Z,2.03
2022-08-17T14:15:16.540Z,2.70
2022-08-17T14:17:44.541Z,3.00
2022-08-17T14:20:13.607Z,2.58
2022-08-17T14:22:51.361Z,2.65
2022-08-17T14:25:25.245Z,2.78
2022-08-17T14:27:54.257Z,3.13
2022-08-17T14:30:25.825Z,2.53
2022-08-17T14:32:56.749Z,3.53
2022-08-17T14:35:25.328Z,2.70
2022-08-17T14:37:53.691Z,2.63
2022-08-17T14:40:25.080Z,2.83
2022-08-17T14:42:55.337Z,3.38
2022-08-17T14:45:29.628Z,2.50
2022-08-17T14:48:04.325Z,3.25
2022-08-17T14:50:35.396Z,2.78
2022-08-17T14:53:06.497Z,3.40
2022-08-17T14:55:35.773Z,2.58
2022-08-17T14:58:04.295Z,3.00
2022-08-17T15:00:33.284Z,3.10
2022-08-17T15:03:02.381Z,2.65
2022-08-17T15:05:34.740Z,3.25
2022-08-17T15:08:03.714Z,2.78
2022-08-17T15:10:32.858Z,2.90
2022-08-17T15:13:02.289Z,3.47
2022-08-17T15:15:30.481Z,2.90
2022-08-17T15:18:00.068Z,3.40
2022-08-17T15:20:29.962Z,2.92
2022-08-17T15:22:59.563Z,3.20
2022-08-17T15:25:30.011Z,2.72
2022-08-17T15:27:58.964Z,2.75
2022-08-17T15:30:27.472Z,2.53
2022-08-17T15:32:57.826Z,2.88
2022-08-17T15:35:29.979Z,2.53
2022-08-17T15:38:06.287Z,2.45
2022-08-17T15:40:41.950Z,3.10
2022-08-17T15:43:13.838Z,2.92
2022-08-17T15:45:42.252Z,2.72
2022-08-17T15:48:10.994Z,2.58
2022-08-17T15:50:39.015Z,2.80
2022-08-17T15:53:07.243Z,2.95
2022-08-17T15:55:36.822Z,2.33
2022-08-17T15:58:04.959Z,2.65
2022-08-17T16:00:42.015Z,2.72
2022-08-17T16:03:59.293Z,2.25
2022-08-17T16:06:11.582Z,2.55
2022-08-17T16:08:44.008Z,2.80
2022-08-17T16:11:16.867Z,2.65
2022-08-17T16:13:47.392Z,3.03
2022-08-17T16:16:23.855Z,3.03
2022-08-17T16:18:53.702Z,2.17
2022-08-17T16:21:26.972Z,2.63
2022-08-17T16:23:58.596Z,3.30
2022-08-17T16:26:28.591Z,3.00
2022-08-17T16:28:58.517Z,2.58
2022-08-17T16:31:26.631Z,3.05
2022-08-17T16:34:17.353Z,2.97
2022-08-17T16:36:54.869Z,2.63
2022-08-17T16:39:26.823Z,2.50
2022-08-17T16:41:56.241Z,2.55
2022-08-17T16:44:26.266Z,2.60
2022-08-17T16:46:56.619Z,3.33
2022-08-17T16:49:36.785Z,3.30
2022-08-17T16:52:10.685Z,3.58
2022-08-17T16:54:44.135Z,3.38
2022-08-17T16:57:14.084Z,3.53
2022-08-17T16:59:47.810Z,3.38
2022-08-17T17:02:37.181Z,3.17
2022-08-17T17:05:43.060Z,2.95
2022-08-17T17:08:40.729Z,2.85
2022-08-17T17:11:20.781Z,3.10
2022-08-17T17:14:02.193Z,2.67
2022-08-17T17:16:57.811Z,2.42
2022-08-17T17:19:41.469Z,3.03
2022-08-17T17:22:25.383Z,2.78
2022-08-17T17:25:14.421Z,2.88
2022-08-17T17:28:08.181Z,3.00
2022-08-17T17:31:03.035Z,2.80
2022-08-17T17:33:40.552Z,2.88
2022-08-17T17:36:22.919Z,2.95
2022-08-17T17:38:54.712Z,2.47
2022-08-17T17:41:35.251Z,3.05
2022-08-17T17:44:11.102Z,2.47
2022-08-17T17:46:43.906Z,2.97
2022-08-17T17:49:14.407Z,3.63
2022-08-17T17:52:10.927Z,2.72
2022-08-17T17:54:56.056Z,3.25
2022-08-17T17:57:45.190Z,3.47
2022-08-17T18:00:23.733Z,3.10
2022-08-17T18:03:06.576Z,3.47
2022-08-17T18:05:37.364Z,3.92
2022-08-17T18:08:34.925Z,3.33
2022-08-17T18:11:24.194Z,2.95
2022-08-17T18:14:17.443Z,3.33
2022-08-17T18:16:46.569Z,2.63
2022-08-17T18:19:20.256Z,2.55
2022-08-17T18:21:54.777Z,2.15
2022-08-17T18:24:34.893Z,1.90
2022-08-17T18:27:08.670Z,2.15
2022-08-17T18:32:33.925Z,1.90
2022-08-17T18:35:16.490Z,1.95
2022-08-17T18:37:47.731Z,1.80
2022-08-17T18:40:21.438Z,2.08
2022-08-17T18:42:55.125Z,2.40
2022-08-17T18:45:51.305Z,2.15
2022-08-17T18:48:24.530Z,1.67
2022-08-17T18:50:54.869Z,2.05
2022-08-17T18:53:39.482Z,2.40
2022-08-17T18:56:17.725Z,2.80
2022-08-17T18:59:05.948Z,2.17
2022-08-17T19:02:03.305Z,2.28
2022-08-17T19:04:42.342Z,2.35
2022-08-17T19:07:33.332Z,2.38
2022-08-17T19:10:28.986Z,2.10
2022-08-17T19:13:12.614Z,2.10
2022-08-17T19:16:12.286Z,2.38
2022-08-17T19:18:39.524Z,2.28
2022-08-17T19:21:15.379Z,2.33
2022-08-17T19:23:53.685Z,2.30
2022-08-17T19:26:51.007Z,2.13
2022-08-17T19:29:22.419Z,2.58
2022-08-17T19:31:50.676Z,2.15
2022-08-17T19:34:33.175Z,2.60
2022-08-17T19:37:10.923Z,2.38
2022-08-17T19:39:47.534Z,2.08
2022-08-17T19:42:19.843Z,2.58
2022-08-17T19:44:59.732Z,2.40
2022-08-17T19:48:04.987Z,2.67
2022-08-17T19:50:41.668Z,2.80
2022-08-17T19:54:04.261Z,2.30
2022-08-17T19:56:55.697Z,2.67
2022-08-17T19:59:39.687Z,2.28
2022-08-17T20:02:41.601Z,2.60
2022-08-17T20:05:21.922Z,2.75
2022-08-17T20:08:05.435Z,2.50
2022-08-17T20:10:55.079Z,2.40
2022-08-17T20:13:45.644Z,2.85
2022-08-17T20:16:13.714Z,2.78
2022-08-17T20:19:20.092Z,2.60
2022-08-17T20:22:08.429Z,2.33
2022-08-17T20:24:40.048Z,2.75
2022-08-17T20:27:19.860Z,2.80
2022-08-17T20:30:11.400Z,2.17
2022-08-17T20:32:52.098Z,2.17
2022-08-17T20:35:32.800Z,2.03
2022-08-17T20:38:12.944Z,1.50
2022-08-17T20:41:01.229Z,1.92
2022-08-17T20:43:34.960Z,1.90
2022-08-17T20:46:37.013Z,1.67
2022-08-17T20:49:26.232Z,1.83
2022-08-17T20:52:09.805Z,1.40
2022-08-17T20:54:53.336Z,1.85
2022-08-17T20:57:50.472Z,1.60
2022-08-17T21:00:27.985Z,2.10
2022-08-17T21:03:23.090Z,1.85
2022-08-17T21:05:57.336Z,1.40
2022-08-17T21:08:33.461Z,1.63
2022-08-17T21:12:03.104Z,1.73
2022-08-17T21:14:31.803Z,1.40
2022-08-17T21:17:49.113Z,1.58
2022-08-17T21:20:32.449Z,2.05
2022-08-17T21:23:32.111Z,1.92
2022-08-17T21:26:17.816Z,1.88
2022-08-17T21:29:01.435Z,1.77
2022-08-17T21:31:40.993Z,1.77
2022-08-17T21:34:23.895Z,1.52
2022-08-17T21:36:51.860Z,2.20
2022-08-17T21:39:30.694Z,2.20
2022-08-17T21:42:01.820Z,1.90
2022-08-17T21:44:37.053Z,1.77
2022-08-17T21:47:13.915Z,1.83
2022-08-17T21:49:41.846Z,1.85
2022-08-17T21:52:17.749Z,2.55
2022-08-17T21:54:53.054Z,2.25
2022-08-17T21:57:27.668Z,2.15
2022-08-17T21:59:59.808Z,2.45
2022-08-17T22:02:33.968Z,2.42
2022-08-17T22:05:10.762Z,2.85
2022-08-17T22:07:46.555Z,2.55
2022-08-17T22:10:37.642Z,2.63
2022-08-17T22:13:16.498Z,2.60
2022-08-17T22:15:48.665Z,2.53
2022-08-17T22:18:28.981Z,2.55
2022-08-17T22:21:01.869Z,3.20
2022-08-17T22:23:52.715Z,2.92
2022-08-17T22:26:23.753Z,3.20
2022-08-17T22:28:55.720Z,3.55
2022-08-17T22:31:26.978Z,3.50
2022-08-17T22:34:00.556Z,3.70
2022-08-17T22:36:33.800Z,3.85
2022-08-17T22:39:23.127Z,3.40
2022-08-17T22:41:52.297Z,3.72
2022-08-17T22:44:48.777Z,4.03
2022-08-17T22:47:17.177Z,3.92
2022-08-17T22:49:58.033Z,3.55
2022-08-17T22:53:00.882Z,3.65
2022-08-17T22:55:50.092Z,3.70
2022-08-17T22:58:40.995Z,3.47
2022-08-17T23:01:28.493Z,3.53
2022-08-17T23:04:05.979Z,3.45
2022-08-17T23:06:35.894Z,3.80
2022-08-17T23:09:06.044Z,2.92
2022-08-17T23:11:48.632Z,3.50
2022-08-17T23:14:20.118Z,3.83
2022-08-17T23:16:50.450Z,3.40
2022-08-17T23:19:21.150Z,3.35
2022-08-17T23:21:53.936Z,3.28
2022-08-17T23:24:26.351Z,3.78
2022-08-17T23:26:57.386Z,4.13
2022-08-17T23:29:26.246Z,3.78
2022-08-17T23:31:55.214Z,3.63
2022-08-17T23:34:24.426Z,3.30
2022-08-17T23:36:53.323Z,3.55
2022-08-17T23:39:24.583Z,3.72
2022-08-17T23:42:00.586Z,3.33
2022-08-17T23:44:29.095Z,4.28
2022-08-17T23:46:57.710Z,3.75
2022-08-17T23:49:25.778Z,3.45
2022-08-17T23:51:56.850Z,3.95
2022-08-17T23:54:28.090Z,4.03
2022-08-17T23:56:55.979Z,3.88
2022-08-17T23:59:24.037Z,3.40
